Time;durP1;ratioP1;P1;durP2;ratioP2;P2;SDS_P1;SDS_P2;PMS_P1;PMS_P2;Temp;Humidity;BMP_temperature;BMP_pressure;BME280_temperature;BME280_humidity;BME280_pressure;Samples;Min_cycle;Max_cycle;Signal;HPM_P1;HPM_P2
2022/11/14 00:00:43;;;;;;;53.57;35.83;;;5.90;99.90;;;;;;5053761;28;20211;-89
2022/11/14 00:03:12;;;;;;;51.50;35.67;;;5.90;99.90;;;;;;5053781;28;20206;-89
2022/11/14 00:05:41;;;;;;;50.03;35.70;;;5.90;99.90;;;;;;5053745;28;20223;-88
2022/11/14 00:08:14;;;;;;;47.87;34.00;;;5.90;99.90;;;;;;5053879;28;20198;-88
2022/11/14 00:10:41;;;;;;;47.83;34.43;;;5.90;99.90;;;;;;5053625;28;20198;-90
2022/11/14 00:13:08;;;;;;;48.63;34.67;;;5.90;99.90;;;;;;5036156;28;20203;-89
2022/11/14 00:15:37;;;;;;;44.60;32.60;;;5.90;99.90;;;;;;5054497;28;20199;-89
2022/11/14 00:18:04;;;;;;;47.23;32.87;;;5.70;99.90;;;;;;5056098;28;20210;-88
2022/11/14 00:20:33;;;;;;;46.13;32.47;;;5.80;99.90;;;;;;5056575;28;20207;-89
2022/11/14 00:23:00;;;;;;;48.33;31.90;;;5.70;99.90;;;;;;5055612;28;20206;-88
2022/11/14 00:25:27;;;;;;;46.07;33.37;;;5.40;99.90;;;;;;5053522;28;20669;-88
2022/11/14 00:27:57;;;;;;;43.07;32.10;;;5.40;99.90;;;;;;5053185;28;20233;-90
2022/11/14 00:30:25;;;;;;;46.63;30.97;;;5.50;99.90;;;;;;5053668;28;20226;-89
2022/11/14 00:32:53;;;;;;;45.17;31.93;;;5.50;99.90;;;;;;5053530;28;20195;-88
2022/11/14 00:35:20;;;;;;;45.20;31.30;;;5.50;99.90;;;;;;5053589;28;20190;-88
2022/11/14 00:37:47;;;;;;;43.27;30.80;;;5.60;99.90;;;;;;5053185;28;20202;-89
2022/11/14 00:40:14;;;;;;;41.93;29.40;;;5.60;99.90;;;;;;5053375;28;20214;-89
2022/11/14 00:42:41;;;;;;;40.80;29.50;;;5.50;99.90;;;;;;5054980;28;20205;-88
2022/11/14 00:45:09;;;;;;;42.20;30.23;;;5.50;99.90;;;;;;5054487;28;20191;-88
2022/11/14 00:47:36;;;;;;;40.77;30.43;;;5.50;99.90;;;;;;5053257;28;20240;-88
2022/11/14 00:50:04;;;;;;;42.27;31.13;;;5.40;99.90;;;;;;5054799;28;20187;-89
2022/11/14 00:52:31;;;;;;;44.73;31.27;;;5.40;99.90;;;;;;5057544;28;20202;-89
2022/11/14 00:54:59;;;;;;;43.13;31.13;;;5.40;99.90;;;;;;5057994;28;20196;-88
2022/11/14 00:57:26;;;;;;;44.97;30.47;;;5.50;99.90;;;;;;5057309;28;20214;-88
2022/11/14 00:59:54;;;;;;;40.73;30.60;;;5.50;99.90;;;;;;5057243;28;20209;-88
2022/11/14 01:02:27;;;;;;;42.47;30.90;;;5.50;99.90;;;;;;5057042;28;20203;-89
2022/11/14 01:04:54;;;;;;;46.67;32.33;;;5.50;99.90;;;;;;5057263;28;20565;-89
2022/11/14 01:07:23;;;;;;;44.00;30.57;;;5.50;99.90;;;;;;5056933;28;20294;-88
2022/11/14 01:09:49;;;;;;;41.40;31.27;;;5.50;99.90;;;;;;5057439;28;20206;-89
2022/11/14 01:12:16;;;;;;;48.10;31.93;;;5.50;99.90;;;;;;5057231;28;20195;-89
2022/11/14 01:14:43;;;;;;;40.43;30.47;;;5.60;99.90;;;;;;5057043;28;20213;-89
2022/11/14 01:17:10;;;;;;;45.87;31.73;;;5.40;99.90;;;;;;5056761;28;20195;-89
2022/11/14 01:19:37;;;;;;;44.43;32.07;;;5.50;99.90;;;;;;5056888;28;20213;-88
2022/11/14 01:22:04;;;;;;;45.03;31.57;;;5.50;99.90;;;;;;5056915;28;20196;-89
2022/11/14 01:24:33;;;;;;;42.10;31.07;;;5.40;99.90;;;;;;5056581;28;20213;-88
2022/11/14 01:27:00;;;;;;;41.00;30.07;;;5.50;99.90;;;;;;5056694;28;20628;-89
2022/11/14 01:29:27;;;;;;;47.30;31.80;;;5.40;99.90;;;;;;5056799;28;20217;-88
2022/11/14 01:31:55;;;;;;;46.83;31.57;;;5.40;99.90;;;;;;5056684;28;20191;-88
2022/11/14 01:34:22;;;;;;;41.43;29.83;;;5.40;99.90;;;;;;5056721;28;20204;-88
2022/11/14 01:36:49;;;;;;;41.73;30.87;;;5.40;99.90;;;;;;5056841;28;20213;-88
2022/11/14 01:39:22;;;;;;;51.47;39.38;;;5.40;99.90;;;;;;5055899;28;20433;-88
2022/11/14 01:41:51;;;;;;;41.80;31.07;;;5.50;99.90;;;;;;5056474;28;20600;-87
2022/11/14 01:44:41;;;;;;;40.33;30.80;;;5.50;99.90;;;;;;5056107;28;20210;-88
2022/11/14 01:47:08;;;;;;;39.83;29.37;;;5.50;99.90;;;;;;5056181;28;20225;-89
2022/11/14 01:49:43;;;;;;;40.63;28.53;;;5.40;99.90;;;;;;5056549;28;20214;-89
2022/11/14 01:52:13;;;;;;;40.10;28.83;;;5.50;99.90;;;;;;5056199;28;20229;-89
2022/11/14 01:54:46;;;;;;;42.20;27.57;;;5.50;99.90;;;;;;5056349;28;20207;-89
2022/11/14 01:57:18;;;;;;;40.37;27.83;;;5.40;99.90;;;;;;5056325;28;20684;-87
2022/11/14 01:59:49;;;;;;;36.93;27.00;;;5.50;99.90;;;;;;5056189;28;20207;-89
2022/11/14 02:02:19;;;;;;;39.33;27.80;;;5.40;99.90;;;;;;5055657;28;20195;-88
2022/11/14 02:04:50;;;;;;;35.37;26.43;;;5.40;99.90;;;;;;5055833;28;20217;-89
2022/11/14 02:07:18;;;;;;;37.47;27.37;;;5.40;99.90;;;;;;5055874;28;20238;-89
2022/11/14 02:09:48;;;;;;;34.73;26.33;;;5.40;99.90;;;;;;5055983;28;20229;-88
2022/11/14 02:12:18;;;;;;;37.43;25.97;;;5.30;99.90;;;;;;5056099;28;20198;-88
2022/11/14 02:14:50;;;;;;;39.93;27.07;;;5.30;99.90;;;;;;5056011;28;20551;-88
2022/11/14 02:17:18;;;;;;;38.70;27.00;;;5.30;99.90;;;;;;5056136;28;20241;-88
2022/11/14 02:19:48;;;;;;;37.77;26.87;;;5.40;99.90;;;;;;5056032;28;20211;-87
2022/11/14 02:22:18;;;;;;;33.13;25.17;;;5.40;99.90;;;;;;5056293;28;20202;-88
2022/11/14 02:24:45;;;;;;;39.03;25.27;;;5.40;99.90;;;;;;5055786;28;20199;-90
2022/11/14 02:27:14;;;;;;;34.80;25.80;;;5.30;99.90;;;;;;5055581;28;20213;-88
2022/11/14 02:29:41;;;;;;;43.60;27.17;;;5.30;99.90;;;;;;5055413;28;20286;-87
2022/11/14 02:32:07;;;;;;;33.13;25.60;;;5.30;99.90;;;;;;5055812;28;20225;-88
2022/11/14 02:34:34;;;;;;;35.70;25.80;;;5.30;99.90;;;;;;5055213;28;20207;-87
2022/11/14 02:37:01;;;;;;;33.63;25.67;;;5.30;99.90;;;;;;5055567;28;20195;-89
2022/11/14 02:39:30;;;;;;;41.67;33.17;;;5.20;99.90;;;;;;5054845;28;21010;-88
2022/11/14 02:41:57;;;;;;;37.30;28.57;;;5.20;99.90;;;;;;5055165;28;20222;-88
2022/11/14 02:44:24;;;;;;;35.83;26.30;;;5.00;99.90;;;;;;5054982;28;20579;-89
2022/11/14 02:46:51;;;;;;;36.13;26.17;;;5.00;99.90;;;;;;5055167;28;20209;-89
2022/11/14 02:49:18;;;;;;;36.63;26.90;;;5.00;99.90;;;;;;5055105;28;20230;-89
2022/11/14 02:51:45;;;;;;;31.97;25.37;;;4.90;99.90;;;;;;5055597;28;20591;-89
2022/11/14 02:54:12;;;;;;;33.93;24.93;;;4.80;99.90;;;;;;5055292;28;20202;-89
2022/11/14 02:56:40;;;;;;;35.67;25.47;;;4.80;99.90;;;;;;5054839;28;20209;-89
2022/11/14 02:59:08;;;;;;;35.53;25.33;;;4.80;99.90;;;;;;5054662;28;20677;-88
2022/11/14 03:01:36;;;;;;;31.63;24.87;;;4.90;99.90;;;;;;5055132;28;20209;-89
2022/11/14 03:04:03;;;;;;;34.17;25.93;;;4.80;99.90;;;;;;5054953;28;20193;-87
2022/11/14 03:06:29;;;;;;;33.87;24.83;;;4.80;99.90;;;;;;5054711;28;20226;-90
2022/11/14 03:08:56;;;;;;;42.33;35.10;;;4.80;99.90;;;;;;5054288;28;20464;-88
2022/11/14 03:11:23;;;;;;;32.97;25.17;;;4.80;99.90;;;;;;5054518;28;20214;-89
2022/11/14 03:13:55;;;;;;;29.40;24.40;;;4.80;99.90;;;;;;5053739;28;20199;-89
2022/11/14 03:16:22;;;;;;;33.57;24.93;;;4.90;99.90;;;;;;5054665;28;20218;-88
2022/11/14 03:18:49;;;;;;;34.83;25.60;;;4.90;99.90;;;;;;5054380;28;20214;-88
2022/11/14 03:21:20;;;;;;;35.43;23.73;;;4.90;99.90;;;;;;5053943;28;20213;-89
2022/11/14 03:23:46;;;;;;;35.13;23.97;;;5.00;99.90;;;;;;5054760;28;20202;-89
2022/11/14 03:26:14;;;;;;;32.40;24.77;;;5.00;99.90;;;;;;5054152;28;20209;-89
2022/11/14 03:28:42;;;;;;;37.23;25.40;;;5.00;99.90;;;;;;5054531;28;20222;-91
2022/11/14 03:31:12;;;;;;;37.43;24.50;;;5.00;99.90;;;;;;5053710;28;20212;-89
2022/11/14 03:33:40;;;;;;;38.33;24.93;;;5.00;99.90;;;;;;5037419;28;20206;-88
2022/11/14 03:36:07;;;;;;;35.03;24.40;;;4.90;99.90;;;;;;5054109;28;20211;-88
2022/11/14 03:38:34;;;;;;;40.50;25.43;;;4.90;99.90;;;;;;5054023;28;20206;-89
2022/11/14 03:41:01;;;;;;;48.45;35.38;;;4.90;99.90;;;;;;5052854;28;20437;-88
2022/11/14 03:43:31;;;;;;;42.57;27.70;;;4.90;99.90;;;;;;5054045;28;20203;-87
2022/11/14 03:45:59;;;;;;;41.53;26.43;;;4.70;99.90;;;;;;5054107;28;20784;-87
2022/11/14 03:48:27;;;;;;;39.50;24.33;;;4.60;99.90;;;;;;5053901;28;20248;-88
2022/11/14 03:50:54;;;;;;;34.93;24.73;;;4.70;99.90;;;;;;5054172;28;20191;-87
2022/11/14 03:53:22;;;;;;;30.50;23.07;;;4.70;99.90;;;;;;5054119;28;20210;-88
2022/11/14 03:55:52;;;;;;;38.47;23.13;;;4.70;99.90;;;;;;5053832;28;20209;-88
2022/11/14 03:58:20;;;;;;;31.30;22.43;;;4.60;99.90;;;;;;5053616;28;20203;-88
2022/11/14 04:00:47;;;;;;;34.40;20.97;;;4.60;99.90;;;;;;5053683;28;20210;-88
2022/11/14 04:03:14;;;;;;;36.53;22.10;;;4.70;99.90;;;;;;5053689;28;20202;-89
2022/11/14 04:05:45;;;;;;;56.20;21.30;;;4.70;99.90;;;;;;5053286;28;20596;-89
2022/11/14 04:08:13;;;;;;;39.67;21.23;;;4.90;99.90;;;;;;5053800;28;20230;-88
2022/11/14 04:10:40;;;;;;;51.47;21.17;;;4.80;99.90;;;;;;5053107;28;20662;-87
2022/11/14 04:13:08;;;;;;;49.07;22.43;;;4.70;99.90;;;;;;5053901;28;20194;-89
2022/11/14 04:15:35;;;;;;;49.70;20.53;;;4.60;99.90;;;;;;5053633;28;20206;-87
2022/11/14 04:18:02;;;;;;;32.47;19.00;;;4.60;99.90;;;;;;5053469;28;20281;-87
2022/11/14 04:20:30;;;;;;;45.03;21.80;;;4.60;99.90;;;;;;5053634;28;20191;-89
2022/11/14 04:22:59;;;;;;;33.13;21.07;;;4.60;99.90;;;;;;5054742;28;20198;-89
2022/11/14 04:25:26;;;;;;;31.70;21.07;;;4.60;99.90;;;;;;5054081;28;20217;-88
2022/11/14 04:27:53;;;;;;;37.13;21.50;;;4.60;99.90;;;;;;5054249;28;20195;-87
2022/11/14 04:30:19;;;;;;;25.30;19.40;;;4.60;99.90;;;;;;5054695;28;20195;-87
2022/11/14 04:32:48;;;;;;;28.40;21.63;;;4.60;99.90;;;;;;5055163;28;20209;-88
2022/11/14 04:35:15;;;;;;;28.87;20.53;;;4.50;99.90;;;;;;5059331;28;20289;-90
2022/11/14 04:37:42;;;;;;;32.17;20.43;;;4.40;99.90;;;;;;5061465;28;20194;-89
2022/11/14 04:40:11;;;;;;;35.50;28.23;;;4.30;99.90;;;;;;5059937;28;20844;-89
2022/11/14 04:42:38;;;;;;;25.27;21.87;;;4.30;99.90;;;;;;5060373;28;20202;-90
2022/11/14 04:45:07;;;;;;;28.20;21.27;;;4.40;99.90;;;;;;5061730;28;20206;-89
2022/11/14 04:47:34;;;;;;;25.80;19.53;;;4.30;99.90;;;;;;5057536;28;20213;-88
2022/11/14 04:50:01;;;;;;;24.70;20.23;;;4.10;99.90;;;;;;5053087;28;20238;-89
2022/11/14 04:52:28;;;;;;;23.37;18.83;;;4.10;99.90;;;;;;5053252;28;20210;-88
2022/11/14 04:54:56;;;;;;;22.53;18.30;;;4.00;99.90;;;;;;5052864;28;20210;-88
2022/11/14 04:57:24;;;;;;;24.53;19.80;;;4.00;99.90;;;;;;5053207;28;20439;-89
2022/11/14 04:59:51;;;;;;;24.73;18.33;;;3.90;99.90;;;;;;5053418;28;20444;-87
2022/11/14 05:02:18;;;;;;;20.67;17.73;;;3.80;99.90;;;;;;5053381;28;20447;-90
2022/11/14 05:04:47;;;;;;;22.43;17.23;;;3.80;99.90;;;;;;5053318;28;20797;-89
2022/11/14 05:07:14;;;;;;;21.73;17.20;;;3.70;99.90;;;;;;5052618;28;20478;-88
2022/11/14 05:09:41;;;;;;;22.10;17.73;;;3.70;99.90;;;;;;5052734;28;20490;-87
2022/11/14 05:12:08;;;;;;;19.53;16.90;;;3.70;99.90;;;;;;5053100;28;20440;-88
2022/11/14 05:14:36;;;;;;;24.20;17.67;;;3.80;99.90;;;;;;5053112;28;20455;-89
2022/11/14 05:17:03;;;;;;;22.63;18.33;;;3.70;99.90;;;;;;5052949;28;20522;-90
2022/11/14 05:19:30;;;;;;;23.27;17.93;;;3.80;99.90;;;;;;5053349;28;20439;-89
2022/11/14 05:21:57;;;;;;;23.13;17.70;;;3.70;99.90;;;;;;5052630;28;20440;-89
2022/11/14 05:24:24;;;;;;;22.50;17.70;;;3.60;99.90;;;;;;5052785;28;20436;-88
2022/11/14 05:26:51;;;;;;;23.43;17.33;;;3.60;99.90;;;;;;5052918;28;20436;-89
2022/11/14 05:29:18;;;;;;;20.83;17.20;;;3.60;99.90;;;;;;5052743;28;20487;-89
2022/11/14 05:31:46;;;;;;;20.43;17.10;;;3.50;99.90;;;;;;5053086;28;20443;-90
2022/11/14 05:34:14;;;;;;;22.37;17.30;;;3.60;99.90;;;;;;5052574;28;20911;-89
2022/11/14 05:36:41;;;;;;;23.63;18.17;;;3.60;99.90;;;;;;5054753;28;20449;-88
2022/11/14 05:39:08;;;;;;;21.33;16.73;;;3.70;99.90;;;;;;5056154;28;20463;-89
2022/11/14 05:41:35;;;;;;;20.00;16.83;;;3.70;99.90;;;;;;5056102;28;20463;-89
2022/11/14 05:44:04;;;;;;;20.00;16.30;;;3.80;99.90;;;;;;5056535;28;20444;-88
2022/11/14 05:46:31;;;;;;;22.33;17.93;;;3.70;99.90;;;;;;5056449;28;20447;-87
2022/11/14 05:48:59;;;;;;;19.33;16.63;;;3.70;99.90;;;;;;5056431;28;20839;-88
2022/11/14 05:51:26;;;;;;;20.40;17.47;;;3.70;99.90;;;;;;5056109;28;20952;-88
2022/11/14 05:53:54;;;;;;;20.50;17.43;;;3.70;99.90;;;;;;5055644;28;20451;-87
2022/11/14 05:56:21;;;;;;;23.20;17.80;;;3.60;99.90;;;;;;5056094;28;20443;-88
2022/11/14 05:58:49;;;;;;;22.67;16.97;;;3.60;99.90;;;;;;5055942;28;20795;-89
2022/11/14 06:01:18;;;;;;;21.47;16.53;;;3.60;99.90;;;;;;5056414;28;20433;-88
2022/11/14 06:03:46;;;;;;;19.03;16.70;;;3.50;99.90;;;;;;5056182;28;20431;-88
2022/11/14 06:06:17;;;;;;;20.60;16.13;;;3.50;99.90;;;;;;5055691;28;20472;-88
2022/11/14 06:08:44;;;;;;;20.27;16.73;;;3.50;99.90;;;;;;5055297;28;20479;-86
2022/11/14 06:11:13;;;;;;;20.17;16.60;;;3.50;99.90;;;;;;5056137;28;20462;-89
2022/11/14 06:13:42;;;;;;;23.97;16.53;;;3.50;99.90;;;;;;5055835;28;20447;-88
2022/11/14 06:16:11;;;;;;;19.47;16.30;;;3.60;99.90;;;;;;5055921;28;20440;-88
2022/11/14 06:18:39;;;;;;;21.33;16.67;;;3.60;99.90;;;;;;5055433;28;20446;-87
2022/11/14 06:21:07;;;;;;;20.97;16.43;;;3.60;99.90;;;;;;5055254;28;20459;-88
2022/11/14 06:23:36;;;;;;;18.40;16.27;;;3.60;99.90;;;;;;5055447;28;20455;-87
2022/11/14 06:26:05;;;;;;;23.27;16.20;;;3.60;99.90;;;;;;5046559;28;20464;-88
2022/11/14 06:28:32;;;;;;;22.73;16.23;;;3.70;99.90;;;;;;5050606;28;20494;-89
2022/11/14 06:31:00;;;;;;;20.60;16.23;;;3.60;99.90;;;;;;5055720;28;20459;-89
2022/11/14 06:33:27;;;;;;;22.50;17.37;;;3.60;99.90;;;;;;5054914;28;20454;-90
2022/11/14 06:35:59;;;;;;;22.27;16.33;;;3.70;99.90;;;;;;5055435;28;20451;-88
2022/11/14 06:38:27;;;;;;;25.60;17.47;;;3.70;99.90;;;;;;5054982;28;20505;-87
2022/11/14 06:41:03;;;;;;;25.43;16.70;;;3.60;99.90;;;;;;5055114;28;20467;-88
2022/11/14 06:43:33;;;;;;;22.53;16.80;;;3.60;99.90;;;;;;5054802;28;20969;-87
2022/11/14 06:45:59;;;;;;;20.50;15.93;;;3.40;99.90;;;;;;5055029;28;20804;-89
2022/11/14 06:48:26;;;;;;;24.30;17.53;;;3.50;99.90;;;;;;5054631;28;20977;-87
2022/11/14 06:50:55;;;;;;;26.63;16.13;;;3.50;99.90;;;;;;5054656;28;20447;-87
2022/11/14 06:53:23;;;;;;;20.80;15.83;;;3.50;99.90;;;;;;5054902;28;20447;-87
2022/11/14 06:55:55;;;;;;;21.77;16.07;;;3.40;99.90;;;;;;5054857;28;20443;-87
2022/11/14 06:58:26;;;;;;;21.07;16.50;;;3.50;99.90;;;;;;5055337;28;20452;-88
2022/11/14 07:00:53;;;;;;;19.07;14.90;;;3.60;99.90;;;;;;5054977;28;20451;-89
2022/11/14 07:03:21;;;;;;;21.40;16.43;;;3.50;99.90;;;;;;5054953;28;20448;-89
2022/11/14 07:05:48;;;;;;;24.97;16.40;;;3.50;99.90;;;;;;5054633;28;20479;-88
2022/11/14 07:08:15;;;;;;;25.88;21.45;;;3.40;99.90;;;;;;5054382;28;20430;-88
2022/11/14 07:10:41;;;;;;;26.70;18.10;;;3.50;99.90;;;;;;5054086;28;20230;-88
2022/11/14 07:13:10;;;;;;;25.27;16.40;;;3.50;99.90;;;;;;5054270;28;20451;-89
2022/11/14 07:15:39;;;;;;;26.50;16.63;;;3.60;99.90;;;;;;5054349;28;20443;-89
2022/11/14 07:18:06;;;;;;;22.07;16.20;;;3.50;99.90;;;;;;5054305;28;20455;-87
2022/11/14 07:20:33;;;;;;;19.60;16.07;;;3.50;99.90;;;;;;5053950;28;20463;-88
2022/11/14 07:22:59;;;;;;;26.03;16.60;;;3.40;99.90;;;;;;5054641;28;20451;-87
2022/11/14 07:25:26;;;;;;;21.37;15.70;;;3.50;99.90;;;;;;5054110;28;20515;-88
2022/11/14 07:27:53;;;;;;;21.83;16.30;;;3.40;99.90;;;;;;5054230;28;20446;-88
2022/11/14 07:30:20;;;;;;;19.27;14.53;;;3.30;99.90;;;;;;5054260;28;20491;-90
2022/11/14 07:32:55;;;;;;;20.03;14.53;;;3.40;99.90;;;;;;5053820;28;20439;-86
2022/11/14 07:35:21;;;;;;;21.03;15.77;;;3.40;99.90;;;;;;5053600;28;20477;-88
2022/11/14 07:37:48;;;;;;;21.70;15.13;;;3.50;99.90;;;;;;5054092;28;20451;-89
2022/11/14 07:40:16;;;;;;;27.07;21.83;;;3.60;99.90;;;;;;5053052;28;20465;-88
2022/11/14 07:42:43;;;;;;;24.10;18.57;;;3.90;99.90;;;;;;5053688;28;20934;-86
2022/11/14 07:45:11;;;;;;;27.43;17.93;;;3.90;99.90;;;;;;5053880;28;20459;-88
2022/11/14 07:47:38;;;;;;;20.67;16.80;;;3.90;99.90;;;;;;5053508;28;20466;-89
2022/11/14 07:50:09;;;;;;;22.33;16.43;;;3.90;99.90;;;;;;5053019;28;20497;-88
2022/11/14 07:52:36;;;;;;;27.37;17.57;;;3.90;99.90;;;;;;5056398;28;20443;-89
2022/11/14 07:55:04;;;;;;;24.53;16.13;;;3.90;99.90;;;;;;5053778;28;20204;-90
2022/11/14 07:57:31;;;;;;;30.57;17.33;;;3.90;99.90;;;;;;5056162;28;20810;-89
2022/11/14 07:59:58;;;;;;;25.10;16.60;;;4.00;99.90;;;;;;5064644;28;20530;-89
2022/11/14 08:02:26;;;;;;;25.50;17.73;;;4.00;99.90;;;;;;5053396;28;20205;-88
2022/11/14 08:04:53;;;;;;;24.23;16.97;;;4.00;99.90;;;;;;5053766;28;20538;-89
2022/11/14 08:07:21;;;;;;;29.13;17.40;;;3.90;99.90;;;;;;5053401;28;20547;-87
2022/11/14 08:09:48;;;;;;;24.53;17.10;;;4.00;99.90;;;;;;5053514;28;20305;-88
2022/11/14 08:12:15;;;;;;;25.27;15.83;;;4.10;99.90;;;;;;5053597;28;20206;-88
2022/11/14 08:14:42;;;;;;;19.53;15.30;;;4.30;99.90;;;;;;5053622;28;20664;-89
2022/11/14 08:17:08;;;;;;;24.77;16.60;;;4.40;99.90;;;;;;5053361;28;20563;-90
2022/11/14 08:19:35;;;;;;;26.50;15.83;;;4.60;99.90;;;;;;5053360;28;20203;-88
2022/11/14 08:22:02;;;;;;;24.40;16.43;;;4.50;99.90;;;;;;5053523;28;20293;-88
2022/11/14 08:24:31;;;;;;;29.93;16.53;;;4.50;99.90;;;;;;5053028;28;20230;-88
2022/11/14 08:26:57;;;;;;;24.13;15.87;;;4.60;99.90;;;;;;5053237;28;20289;-88
2022/11/14 08:29:25;;;;;;;21.43;15.83;;;4.70;99.90;;;;;;5053271;28;20870;-88
2022/11/14 08:31:52;;;;;;;21.07;15.47;;;4.70;99.90;;;;;;5052655;28;20808;-89
2022/11/14 08:34:21;;;;;;;21.47;16.07;;;4.70;99.90;;;;;;5053217;28;20199;-88
2022/11/14 08:36:48;;;;;;;24.27;16.27;;;4.60;99.90;;;;;;5053194;28;20638;-87
2022/11/14 08:39:15;;;;;;;25.30;15.53;;;4.60;99.90;;;;;;5053203;28;20286;-88
2022/11/14 08:41:43;;;;;;;24.87;16.20;;;4.60;99.90;;;;;;5052810;28;20207;-87
2022/11/14 08:44:10;;;;;;;20.37;16.13;;;4.70;99.90;;;;;;5053112;28;20715;-85
2022/11/14 08:46:38;;;;;;;21.73;15.57;;;4.90;99.90;;;;;;5048331;28;20202;-86
2022/11/14 08:49:07;;;;;;;25.37;16.40;;;5.00;99.90;;;;;;5054435;28;20351;-91
2022/11/14 08:51:35;;;;;;;24.77;16.80;;;5.00;99.90;;;;;;5051120;28;20206;-89
2022/11/14 08:54:02;;;;;;;21.80;16.07;;;5.00;99.90;;;;;;5050343;28;20737;-87
2022/11/14 08:56:29;;;;;;;22.70;15.63;;;5.00;99.90;;;;;;5052712;28;20631;-89
2022/11/14 08:58:58;;;;;;;26.30;16.30;;;5.10;99.90;;;;;;5052568;28;20213;-88
2022/11/14 09:01:25;;;;;;;22.17;15.80;;;5.00;99.90;;;;;;5053019;28;20205;-86
2022/11/14 09:03:52;;;;;;;21.33;16.10;;;5.20;99.90;;;;;;5052379;28;20566;-89
2022/11/14 09:06:19;;;;;;;23.07;16.90;;;5.20;99.90;;;;;;5053479;28;20230;-89
2022/11/14 09:08:47;;;;;;;24.75;18.90;;;5.30;99.90;;;;;;5052469;28;20452;-89
2022/11/14 09:11:14;;;;;;;23.57;16.90;;;5.30;99.90;;;;;;5054109;28;20238;-88
2022/11/14 09:13:41;;;;;;;22.43;16.43;;;5.40;99.90;;;;;;5056596;28;20199;-89
2022/11/14 09:16:09;;;;;;;24.00;16.60;;;5.50;99.90;;;;;;5056139;28;20290;-86
2022/11/14 09:18:37;;;;;;;20.43;16.57;;;5.60;99.90;;;;;;5056869;28;20248;-91
2022/11/14 09:21:06;;;;;;;21.17;15.60;;;5.60;99.90;;;;;;5039767;28;20567;-89
2022/11/14 09:23:33;;;;;;;20.67;16.00;;;5.70;99.90;;;;;;5053792;28;20210;-89
2022/11/14 09:26:04;;;;;;;22.80;16.27;;;5.70;99.90;;;;;;5047823;28;20208;-89
2022/11/14 09:28:31;;;;;;;22.87;15.97;;;5.80;99.90;;;;;;5049724;28;20199;-90
2022/11/14 09:31:00;;;;;;;20.40;16.03;;;5.90;99.90;;;;;;5049880;28;20280;-89
2022/11/14 09:33:29;;;;;;;22.97;16.47;;;6.00;99.90;;;;;;5044578;28;20203;-88
2022/11/14 09:35:57;;;;;;;23.23;15.53;;;6.10;99.90;;;;;;5056248;28;20206;-88
2022/11/14 09:38:24;;;;;;;23.93;15.90;;;6.10;99.90;;;;;;5056408;28;20658;-88
2022/11/14 09:41:00;;;;;;;23.50;18.95;;;6.10;99.90;;;;;;5055456;28;20472;-89
2022/11/14 09:43:40;;;;;;;21.03;15.57;;;6.20;99.90;;;;;;5056326;28;20206;-87
2022/11/14 09:46:17;;;;;;;19.47;14.43;;;6.20;99.90;;;;;;5055654;28;20206;-88
2022/11/14 09:48:45;;;;;;;21.43;14.53;;;6.20;99.90;;;;;;5053691;28;20387;-89
2022/11/14 09:51:17;;;;;;;20.43;14.57;;;6.20;99.90;;;;;;5053340;28;20230;-87
2022/11/14 09:53:49;;;;;;;22.13;14.40;;;6.30;99.90;;;;;;5058958;28;20199;-88
2022/11/14 09:56:23;;;;;;;21.90;13.43;;;6.20;99.90;;;;;;5058943;28;20224;-88
2022/11/14 09:58:50;;;;;;;25.27;15.20;;;6.30;99.90;;;;;;5055529;28;20198;-88
2022/11/14 10:01:30;;;;;;;19.83;14.70;;;6.30;99.90;;;;;;5057869;28;20198;-88
2022/11/14 10:04:09;;;;;;;21.10;14.83;;;6.40;99.90;;;;;;5051646;28;20206;-87
2022/11/14 10:06:47;;;;;;;21.03;13.43;;;6.50;99.90;;;;;;5048633;28;20225;-90
2022/11/14 10:09:50;;;;;;;19.60;13.53;;;6.50;99.90;;;;;;5052540;28;20204;-87
2022/11/14 10:12:22;;;;;;;19.30;14.17;;;6.50;99.90;;;;;;5055397;28;20214;-86
2022/11/14 10:15:11;;;;;;;19.43;14.47;;;6.60;99.90;;;;;;5054939;28;20577;-86
2022/11/14 10:17:55;;;;;;;17.37;13.57;;;6.70;99.90;;;;;;5055616;28;20199;-88
2022/11/14 10:20:29;;;;;;;21.23;14.27;;;6.80;99.90;;;;;;5055639;28;20205;-84
2022/11/14 10:23:06;;;;;;;19.40;14.33;;;6.90;99.90;;;;;;5041092;28;20236;-88
2022/11/14 10:25:44;;;;;;;19.07;13.90;;;7.00;99.90;;;;;;5055638;28;20209;-87
2022/11/14 10:28:33;;;;;;;20.27;14.60;;;7.00;99.90;;;;;;5055068;28;20213;-88
2022/11/14 10:31:09;;;;;;;22.27;15.00;;;6.90;99.90;;;;;;5054857;28;20234;-86
2022/11/14 10:33:46;;;;;;;20.20;14.93;;;6.80;99.90;;;;;;5055581;28;20213;-87
2022/11/14 10:36:22;;;;;;;23.37;16.40;;;6.80;99.90;;;;;;5055684;28;20210;-85
2022/11/14 10:38:55;;;;;;;27.13;17.67;;;6.90;99.90;;;;;;5056100;28;20213;-87
2022/11/14 10:41:25;;;;;;;28.60;22.00;;;6.60;99.90;;;;;;5062995;28;20578;-86
2022/11/14 10:43:55;;;;;;;31.63;19.90;;;6.40;99.90;;;;;;5063682;28;20199;-84
2022/11/14 10:46:26;;;;;;;28.17;20.63;;;6.30;99.90;;;;;;5054494;28;20209;-88
2022/11/14 10:48:54;;;;;;;27.23;18.90;;;6.00;99.90;;;;;;5055144;28;20282;-87
2022/11/14 10:51:29;;;;;;;31.17;19.77;;;5.90;99.90;;;;;;5055036;28;20219;-86
2022/11/14 10:54:01;;;;;;;31.77;20.70;;;5.70;99.90;;;;;;5054857;28;20202;-85
2022/11/14 10:56:28;;;;;;;31.33;20.43;;;5.70;99.90;;;;;;5054989;28;20209;-88
2022/11/14 10:58:55;;;;;;;29.67;19.20;;;5.60;99.90;;;;;;5054556;28;20268;-87
2022/11/14 11:01:38;;;;;;;28.90;19.63;;;5.60;99.90;;;;;;5054929;28;20360;-87
2022/11/14 11:04:27;;;;;;;29.30;19.50;;;5.60;99.90;;;;;;5055078;28;20206;-87
2022/11/14 11:06:57;;;;;;;28.60;19.03;;;5.90;99.90;;;;;;5050135;28;20711;-87
2022/11/14 11:12:16;;;;;;;29.97;20.07;;;6.00;99.90;;;;;;5054325;28;20576;-88
2022/11/14 11:14:44;;;;;;;29.73;19.77;;;6.00;99.90;;;;;;5054412;28;20233;-88
2022/11/14 11:17:23;;;;;;;29.53;19.53;;;6.00;99.90;;;;;;5054472;28;20206;-88
2022/11/14 11:19:50;;;;;;;38.77;21.87;;;5.90;99.90;;;;;;5054758;28;20202;-90
2022/11/14 11:22:29;;;;;;;33.97;20.57;;;6.00;99.90;;;;;;5054493;28;20281;-86
2022/11/14 11:24:56;;;;;;;34.63;21.93;;;6.00;99.90;;;;;;5054083;28;20199;-89
2022/11/14 11:27:25;;;;;;;33.67;21.73;;;5.90;99.90;;;;;;5047855;28;20209;-90
2022/11/14 11:30:18;;;;;;;33.60;21.70;;;6.00;99.90;;;;;;5052366;28;20209;-90
2022/11/14 11:32:45;;;;;;;36.03;21.87;;;6.20;99.90;;;;;;5054454;28;20210;-89
2022/11/14 11:35:13;;;;;;;28.10;20.07;;;6.30;99.90;;;;;;5053235;28;20216;-89
2022/11/14 11:37:47;;;;;;;27.53;19.50;;;6.30;99.90;;;;;;5053878;28;20202;-88
2022/11/14 11:40:19;;;;;;;28.03;19.23;;;6.40;99.90;;;;;;5053646;28;20297;-87
2022/11/14 11:42:56;;;;;;;29.43;19.17;;;6.40;99.90;;;;;;5054286;28;20199;-90
2022/11/14 11:45:23;;;;;;;26.73;19.17;;;6.40;99.90;;;;;;5051499;28;20210;-87
2022/11/14 11:47:56;;;;;;;28.90;18.00;;;6.50;99.90;;;;;;5036057;28;20207;-87
2022/11/14 11:50:24;;;;;;;24.30;17.83;;;6.50;99.90;;;;;;5044596;28;20214;-88
2022/11/14 11:53:12;;;;;;;20.93;16.00;;;6.60;99.90;;;;;;5018478;28;20230;-87
2022/11/14 11:55:43;;;;;;;20.90;16.67;;;6.60;99.90;;;;;;5015208;28;20677;-88
2022/11/14 11:58:19;;;;;;;22.63;16.63;;;6.50;99.90;;;;;;5035929;28;20770;-85
2022/11/14 12:00:46;;;;;;;20.93;15.63;;;6.40;99.90;;;;;;5036119;28;20657;-87
2022/11/14 12:03:15;;;;;;;21.83;16.17;;;6.40;99.90;;;;;;5036119;28;20203;-88
2022/11/14 12:05:54;;;;;;;21.33;16.40;;;6.40;99.90;;;;;;5020579;28;20219;-87
2022/11/14 12:08:29;;;;;;;22.20;16.93;;;6.40;99.90;;;;;;5033459;28;20688;-88
2022/11/14 12:10:57;;;;;;;24.60;16.60;;;6.40;99.90;;;;;;5048430;28;20309;-87
2022/11/14 12:13:53;;;;;;;21.83;16.23;;;6.40;99.90;;;;;;5053683;28;20561;-88
2022/11/14 12:16:49;;;;;;;19.90;16.03;;;6.50;99.90;;;;;;5053587;28;20205;-88
2022/11/14 12:19:42;;;;;;;23.43;17.00;;;6.50;99.90;;;;;;5053368;28;20211;-87
2022/11/14 12:22:45;;;;;;;21.60;15.87;;;6.60;99.90;;;;;;5053274;28;20272;-87
2022/11/14 12:25:45;;;;;;;23.13;15.97;;;6.60;99.90;;;;;;5015185;28;20586;-88
2022/11/14 12:28:26;;;;;;;17.63;14.20;;;6.70;99.90;;;;;;5053030;28;20213;-87
2022/11/14 12:30:58;;;;;;;21.20;15.53;;;6.70;99.90;;;;;;5048093;28;20234;-88
2022/11/14 12:33:29;;;;;;;23.73;17.17;;;6.60;99.90;;;;;;5035326;28;20202;-87
2022/11/14 12:35:59;;;;;;;21.90;15.70;;;6.60;99.90;;;;;;5049354;28;20337;-87
2022/11/14 12:38:31;;;;;;;24.97;17.50;;;6.30;99.90;;;;;;5052613;28;20201;-87
2022/11/14 12:41:02;;;;;;;21.93;17.03;;;6.30;99.90;;;;;;5052958;28;20268;-87
2022/11/14 12:43:33;;;;;;;22.27;16.57;;;6.40;99.90;;;;;;5051469;28;20198;-90
2022/11/14 12:46:02;;;;;;;21.17;16.20;;;6.50;99.90;;;;;;5035115;28;20199;-88
2022/11/14 12:48:38;;;;;;;24.33;17.60;;;6.60;99.90;;;;;;5039973;28;20610;-89
2022/11/14 12:51:48;;;;;;;23.13;17.20;;;6.60;99.90;;;;;;5053533;28;20245;-89